createdAt,value
2017-11-09T00:15:12.144Z,8.04
2017-11-09T00:17:39.206Z,8.01
2017-11-09T00:20:07.971Z,8.04
2017-11-09T00:22:34.894Z,8.12
2017-11-09T00:25:02.430Z,8.27
2017-11-09T00:27:30.000Z,8.31
2017-11-09T00:29:56.898Z,8.26
2017-11-09T00:32:23.733Z,8.07
2017-11-09T00:34:50.582Z,8.07
2017-11-09T00:37:17.419Z,8.07
2017-11-09T00:39:44.514Z,8.04
2017-11-09T00:42:11.463Z,8.05
2017-11-09T00:44:39.394Z,8.09
2017-11-09T00:47:06.845Z,8.15
2017-11-09T00:49:33.671Z,8.15
2017-11-09T00:52:00.568Z,8.30
2017-11-09T00:54:27.435Z,8.31
2017-11-09T00:56:55.031Z,8.23
2017-11-09T00:59:21.852Z,8.17
2017-11-09T01:01:48.684Z,8.08
2017-11-09T01:04:15.488Z,8.03
2017-11-09T01:06:42.492Z,8.00
2017-11-09T01:09:10.335Z,8.08
2017-11-09T01:11:38.071Z,8.07
2017-11-09T01:14:05.010Z,7.99
2017-11-09T01:16:31.884Z,7.96
2017-11-09T01:18:58.709Z,7.96
2017-11-09T01:21:25.652Z,7.96
2017-11-09T01:23:52.736Z,7.96
2017-11-09T01:26:20.649Z,7.99
2017-11-09T01:28:47.535Z,7.98
2017-11-09T01:31:14.509Z,8.03
2017-11-09T01:33:41.410Z,8.03
2017-11-09T01:36:08.523Z,8.01
2017-11-09T01:38:35.361Z,7.98
2017-11-09T01:41:02.296Z,7.98
2017-11-09T01:43:29.324Z,7.94
2017-11-09T01:45:56.225Z,7.95
2017-11-09T01:48:23.128Z,7.98
2017-11-09T01:50:49.983Z,8.02
2017-11-09T01:53:16.809Z,8.15
2017-11-09T01:55:44.905Z,8.23
2017-11-09T01:58:13.060Z,8.27
2017-11-09T02:00:39.925Z,8.25
2017-11-09T02:03:07.604Z,8.16
2017-11-09T02:05:34.492Z,8.03
2017-11-09T02:08:02.555Z,8.01
2017-11-09T02:10:30.748Z,8.16
2017-11-09T02:12:57.603Z,8.03
2017-11-09T02:15:24.498Z,8.06
2017-11-09T02:17:51.533Z,8.09
2017-11-09T02:20:18.430Z,8.02
2017-11-09T02:22:46.118Z,7.97
2017-11-09T02:25:13.147Z,7.94
2017-11-09T02:27:40.096Z,7.92
2017-11-09T02:30:07.059Z,7.97
2017-11-09T02:32:33.979Z,8.00
2017-11-09T02:35:00.853Z,7.96
2017-11-09T02:37:27.909Z,7.96
2017-11-09T02:39:54.802Z,8.02
2017-11-09T02:42:21.983Z,8.16
2017-11-09T02:44:49.648Z,8.14
2017-11-09T02:47:16.555Z,8.17
2017-11-09T02:49:43.538Z,8.12
2017-11-09T02:52:10.436Z,8.23
2017-11-09T02:54:37.343Z,8.24
2017-11-09T02:57:04.260Z,8.07
2017-11-09T02:59:31.217Z,7.99
2017-11-09T03:01:58.073Z,8.05
2017-11-09T03:04:24.936Z,8.05
2017-11-09T03:06:51.826Z,8.03
2017-11-09T03:09:18.712Z,8.03
2017-11-09T03:11:45.605Z,8.01
2017-11-09T03:14:12.460Z,8.05
2017-11-09T03:16:55.696Z,8.15
2017-11-09T03:19:23.545Z,8.24
2017-11-09T03:21:50.444Z,8.24
2017-11-09T03:24:17.320Z,8.11
2017-11-09T03:26:45.196Z,8.06
2017-11-09T03:29:12.076Z,8.13
2017-11-09T03:31:39.081Z,8.09
2017-11-09T03:34:05.965Z,8.05
2017-11-09T03:36:32.813Z,8.13
2017-11-09T03:39:00.585Z,8.12
2017-11-09T03:41:27.419Z,8.25
2017-11-09T03:43:55.076Z,8.20
2017-11-09T03:46:22.006Z,8.12
2017-11-09T03:48:48.844Z,7.99
2017-11-09T03:51:15.697Z,7.98
2017-11-09T03:53:42.548Z,8.00
2017-11-09T03:56:09.693Z,8.02
2017-11-09T03:58:36.521Z,7.95
2017-11-09T04:01:03.380Z,8.07
2017-11-09T04:03:30.249Z,8.01
2017-11-09T04:05:57.091Z,8.06
2017-11-09T04:08:23.949Z,8.14
2017-11-09T04:10:50.909Z,8.25
2017-11-09T04:13:18.055Z,8.29
2017-11-09T04:15:44.972Z,8.28
2017-11-09T04:18:11.827Z,8.25
2017-11-09T04:20:39.501Z,8.18
2017-11-09T04:23:06.353Z,8.32
2017-11-09T04:25:33.200Z,8.33
2017-11-09T04:28:01.013Z,8.25
2017-11-09T04:30:27.853Z,8.18
2017-11-09T04:32:54.694Z,8.20
2017-11-09T04:35:21.602Z,8.22
2017-11-09T04:37:48.456Z,8.22
2017-11-09T04:40:15.296Z,8.15
2017-11-09T04:42:42.171Z,8.23
2017-11-09T04:45:09.037Z,8.27
2017-11-09T04:47:36.504Z,8.33
2017-11-09T04:50:03.427Z,8.30
2017-11-09T04:52:30.281Z,8.34
2017-11-09T04:54:57.820Z,8.35
2017-11-09T04:57:24.671Z,8.38
2017-11-09T04:59:51.501Z,8.35
2017-11-09T05:02:18.325Z,8.31
2017-11-09T05:04:45.523Z,8.23
2017-11-09T05:07:12.438Z,8.14
2017-11-09T05:09:39.297Z,8.22
2017-11-09T05:12:06.187Z,8.34
2017-11-09T05:14:33.801Z,8.37
2017-11-09T05:17:04.381Z,8.31
2017-11-09T05:19:31.234Z,8.32
2017-11-09T05:21:58.083Z,8.33
2017-11-09T05:24:24.969Z,8.35
2017-11-09T05:26:51.815Z,8.36
2017-11-09T05:29:18.711Z,8.38
2017-11-09T05:31:46.485Z,8.38
2017-11-09T05:34:13.399Z,8.36
2017-11-09T05:36:40.272Z,8.34
2017-11-09T05:39:07.151Z,8.32
2017-11-09T05:41:34.084Z,8.34
2017-11-09T05:44:00.944Z,8.35
2017-11-09T05:46:27.799Z,8.39
2017-11-09T05:48:54.674Z,8.35
2017-11-09T05:51:22.339Z,8.29
2017-11-09T05:53:49.177Z,8.32
2017-11-09T05:56:16.115Z,8.29
2017-11-09T05:58:43.738Z,8.21
2017-11-09T06:01:11.016Z,8.33
2017-11-09T06:03:37.911Z,8.36
2017-11-09T06:06:04.776Z,8.36
2017-11-09T06:08:31.655Z,8.29
2017-11-09T06:11:00.152Z,8.25
2017-11-09T06:13:27.061Z,8.25
2017-11-09T06:15:54.495Z,8.29
2017-11-09T06:18:21.329Z,8.31
2017-11-09T06:20:48.207Z,8.31
2017-11-09T06:23:15.118Z,8.29
2017-11-09T06:25:41.981Z,8.32
2017-11-09T06:28:08.853Z,8.36
2017-11-09T06:30:36.157Z,8.29
2017-11-09T06:33:03.818Z,8.16
2017-11-09T06:35:30.675Z,8.24
2017-11-09T06:37:57.581Z,8.24
2017-11-09T06:40:24.549Z,8.27
2017-11-09T06:42:51.421Z,8.31
2017-11-09T06:45:18.317Z,8.28
2017-11-09T06:47:45.913Z,8.35
2017-11-09T06:50:12.784Z,8.36
2017-11-09T06:52:39.662Z,8.33
2017-11-09T06:55:06.580Z,8.33
2017-11-09T06:57:34.207Z,8.36
2017-11-09T07:00:01.067Z,8.41
2017-11-09T07:02:27.924Z,8.39
2017-11-09T07:04:54.861Z,8.31
2017-11-09T07:07:21.694Z,8.31
2017-11-09T07:09:48.506Z,8.28
2017-11-09T07:12:15.374Z,8.21
2017-11-09T07:14:42.235Z,8.33
2017-11-09T07:17:09.052Z,8.40
2017-11-09T07:19:36.607Z,8.38
2017-11-09T07:22:03.450Z,8.44
2017-11-09T07:24:30.299Z,8.41
2017-11-09T07:26:57.133Z,8.31
2017-11-09T07:29:23.979Z,8.29
2017-11-09T07:31:51.576Z,8.33
2017-11-09T07:34:18.448Z,8.28
2017-11-09T07:36:45.311Z,8.26
2017-11-09T07:39:12.894Z,8.45
2017-11-09T07:41:39.746Z,8.47
2017-11-09T07:44:06.618Z,8.49
2017-11-09T07:46:34.191Z,8.50
2017-11-09T07:49:01.039Z,8.47
2017-11-09T07:51:27.866Z,8.52
2017-11-09T07:53:55.447Z,8.55
2017-11-09T07:56:23.030Z,8.56
2017-11-09T07:58:50.620Z,8.63
2017-11-09T08:01:18.171Z,8.58
2017-11-09T08:03:45.009Z,8.64
2017-11-09T08:06:11.869Z,8.64
2017-11-09T08:08:38.702Z,8.60
2017-11-09T08:11:05.517Z,8.57
2017-11-09T08:13:32.315Z,8.66
2017-11-09T08:15:59.167Z,8.66
2017-11-09T08:18:26.002Z,8.65
2017-11-09T08:20:53.550Z,8.69
2017-11-09T08:23:20.414Z,8.74
2017-11-09T08:25:50.053Z,8.72
2017-11-09T08:28:20.732Z,8.73
2017-11-09T08:30:49.393Z,8.75
2017-11-09T08:33:18.199Z,8.74
2017-11-09T08:35:45.104Z,8.77
2017-11-09T08:38:12.713Z,8.88
2017-11-09T08:40:39.558Z,8.79
2017-11-09T08:43:06.388Z,8.93
2017-11-09T08:45:33.986Z,8.79
2017-11-09T08:48:00.840Z,8.91
2017-11-09T08:50:28.397Z,8.88
2017-11-09T08:52:55.199Z,8.98
2017-11-09T08:55:22.048Z,8.99
2017-11-09T08:57:48.906Z,9.02
2017-11-09T09:00:15.729Z,8.98
2017-11-09T09:02:42.558Z,9.02
2017-11-09T09:05:10.621Z,8.96
2017-11-09T09:07:38.820Z,9.04
2017-11-09T09:10:05.766Z,8.98
2017-11-09T09:12:33.563Z,9.06
2017-11-09T09:15:00.465Z,9.09
2017-11-09T09:17:27.392Z,9.13
2017-11-09T09:19:54.260Z,9.14
2017-11-09T09:56:35.585Z,9.31
2017-11-09T09:59:02.434Z,9.32
2017-11-09T10:01:29.297Z,9.31
2017-11-09T10:03:56.154Z,9.37
2017-11-09T10:06:22.997Z,9.34
2017-11-09T10:08:49.861Z,9.39
2017-11-09T10:11:16.665Z,9.43
2017-11-09T10:13:43.479Z,9.51
2017-11-09T10:16:11.040Z,9.43
2017-11-09T10:18:37.903Z,9.46
2017-11-09T10:21:04.744Z,9.52
2017-11-09T10:23:32.475Z,9.64
2017-11-09T10:26:00.158Z,9.64
2017-11-09T10:28:26.999Z,9.67
2017-11-09T10:30:53.803Z,9.58
2017-11-09T10:33:20.652Z,9.53
2017-11-09T10:35:47.504Z,9.56
2017-11-09T10:38:14.343Z,9.61
2017-11-09T10:40:41.188Z,9.59
2017-11-09T10:43:08.073Z,9.60
2017-11-09T10:45:34.981Z,9.62
2017-11-09T10:48:02.568Z,9.62
2017-11-09T10:50:30.159Z,9.65
2017-11-09T10:52:57.268Z,9.63
2017-11-09T10:55:24.089Z,9.70
2017-11-09T10:57:50.960Z,9.80
2017-11-09T11:00:17.849Z,9.70
2017-11-09T11:02:44.724Z,9.85
2017-11-09T11:05:11.629Z,9.91
2017-11-09T11:07:38.566Z,9.91
2017-11-09T11:10:06.201Z,9.88
2017-11-09T11:12:33.033Z,9.95
2017-11-09T11:15:00.595Z,9.98
2017-11-09T11:17:28.149Z,10.02
2017-11-09T11:19:54.960Z,9.83
2017-11-09T11:22:21.772Z,9.68
2017-11-09T11:24:48.589Z,9.78
2017-11-09T11:27:15.423Z,9.75
2017-11-09T11:29:43.045Z,9.84
2017-11-09T11:32:09.905Z,10.03
2017-11-09T11:34:36.740Z,9.91
2017-11-09T11:37:03.658Z,9.75
2017-11-09T11:39:30.529Z,9.88
2017-11-09T11:41:57.346Z,9.95
2017-11-09T11:44:24.177Z,10.00
2017-11-09T11:46:51.009Z,9.96
2017-11-09T11:49:17.857Z,9.76
2017-11-09T11:51:44.689Z,9.91
2017-11-09T11:54:11.534Z,10.02
2017-11-09T11:56:38.343Z,10.16
2017-11-09T11:59:05.155Z,10.09
2017-11-09T12:01:32.005Z,9.97
2017-11-09T12:03:58.833Z,10.26
2017-11-09T12:06:25.682Z,10.48
2017-11-09T12:08:52.544Z,10.45
2017-11-09T12:11:19.374Z,10.55
2017-11-09T12:13:46.244Z,10.52
2017-11-09T12:16:13.112Z,10.56
2017-11-09T12:18:39.926Z,10.66
2017-11-09T12:21:07.509Z,10.73
2017-11-09T12:23:35.063Z,10.79
2017-11-09T12:26:01.904Z,10.56
2017-11-09T12:28:28.752Z,10.58
2017-11-09T12:30:58.515Z,10.67
2017-11-09T12:33:25.342Z,10.89
2017-11-09T12:35:52.185Z,10.63
2017-11-09T12:38:19.030Z,10.64
2017-11-09T12:40:45.871Z,10.94
2017-11-09T12:43:13.483Z,10.95
2017-11-09T12:45:40.448Z,10.54
2017-11-09T12:48:07.367Z,10.74
2017-11-09T12:50:34.966Z,10.56
2017-11-09T12:53:02.517Z,10.88
2017-11-09T12:55:29.415Z,10.86
2017-11-09T12:57:56.248Z,10.87
2017-11-09T13:00:24.078Z,10.96
2017-11-09T13:02:50.946Z,10.86
2017-11-09T13:05:17.789Z,10.83
2017-11-09T13:07:44.624Z,10.88
2017-11-09T13:10:12.185Z,10.72
2017-11-09T13:12:39.036Z,10.69
2017-11-09T13:15:05.921Z,10.66
2017-11-09T13:17:33.565Z,10.54
2017-11-09T13:20:00.427Z,10.58
2017-11-09T13:22:27.297Z,10.60
2017-11-09T13:24:54.487Z,10.65
2017-11-09T13:27:22.108Z,10.48
2017-11-09T13:29:48.975Z,10.57
2017-11-09T13:32:15.868Z,10.44
2017-11-09T13:34:42.929Z,10.42
2017-11-09T13:37:10.878Z,10.36
2017-11-09T13:39:37.725Z,10.33
2017-11-09T13:42:04.571Z,10.40
2017-11-09T13:44:32.129Z,10.16
2017-11-09T13:46:59.431Z,10.45
2017-11-09T13:49:27.055Z,10.37
2017-11-09T13:51:53.965Z,10.11
2017-11-09T13:54:20.821Z,10.04
2017-11-09T13:56:48.564Z,10.31
2017-11-09T13:59:15.468Z,10.28
2017-11-09T14:01:43.027Z,10.00
2017-11-09T14:04:09.997Z,10.28
2017-11-09T14:06:36.818Z,9.90
2017-11-09T14:09:04.191Z,10.04
2017-11-09T14:11:31.027Z,10.15
2017-11-09T14:13:57.860Z,10.02
2017-11-09T14:16:25.473Z,10.10
2017-11-09T14:18:52.329Z,10.15
2017-11-09T14:21:19.598Z,10.25
2017-11-09T14:23:46.516Z,10.22
2017-11-09T14:26:13.393Z,10.06
2017-11-09T14:28:40.244Z,10.16
2017-11-09T14:31:07.082Z,10.22
2017-11-09T14:33:33.929Z,10.10
2017-11-09T14:36:00.779Z,10.14
2017-11-09T14:38:30.489Z,10.14
2017-11-09T14:40:59.803Z,10.08
2017-11-09T14:43:26.704Z,10.01
2017-11-09T14:45:53.542Z,9.96
2017-11-09T14:48:20.559Z,9.99
2017-11-09T14:50:47.380Z,9.95
2017-11-09T14:53:14.359Z,9.88
2017-11-09T14:55:41.193Z,9.95
2017-11-09T14:58:08.043Z,9.79
2017-11-09T15:00:34.890Z,9.84
2017-11-09T15:03:01.717Z,9.84
2017-11-09T15:05:28.563Z,9.78
2017-11-09T15:07:55.411Z,9.84
2017-11-09T15:10:22.268Z,9.78
2017-11-09T15:12:49.138Z,9.79
2017-11-09T15:15:16.417Z,9.63
2017-11-09T15:17:43.326Z,9.68
2017-11-09T15:20:10.981Z,9.42
2017-11-09T15:22:38.273Z,9.64
2017-11-09T15:25:07.339Z,9.57
2017-11-09T15:27:34.265Z,9.52
2017-11-09T15:30:01.164Z,9.47
2017-11-09T15:32:33.599Z,9.50
2017-11-09T15:35:01.237Z,9.38
2017-11-09T15:37:28.134Z,9.41
2017-11-09T15:39:54.946Z,9.27
2017-11-09T15:42:21.826Z,9.08
2017-11-09T15:44:48.691Z,9.30
2017-11-09T15:47:15.520Z,9.15
2017-11-09T15:49:42.425Z,9.21
2017-11-09T15:52:09.342Z,8.97
2017-11-09T15:54:36.205Z,9.13
2017-11-09T16:19:38.680Z,8.92
2017-11-09T16:22:05.549Z,8.65
2017-11-09T16:24:32.435Z,8.77
2017-11-09T16:26:59.308Z,8.61
2017-11-09T16:29:26.182Z,8.62
2017-11-09T16:31:53.091Z,8.72
2017-11-09T16:34:19.920Z,8.69
2017-11-09T16:36:46.773Z,8.67
2017-11-09T16:39:13.612Z,8.43
2017-11-09T16:41:40.505Z,8.67
2017-11-09T16:44:07.305Z,8.68
2017-11-09T16:46:34.164Z,8.62
2017-11-09T16:49:01.082Z,8.66
2017-11-09T16:51:27.942Z,8.41
2017-11-09T16:53:54.809Z,8.24
2017-11-09T16:56:21.704Z,8.48
2017-11-09T16:58:51.451Z,8.52
2017-11-09T17:01:18.304Z,8.40
2017-11-09T17:03:45.187Z,8.51
2017-11-09T17:06:12.031Z,8.54
2017-11-09T17:08:38.899Z,8.43
2017-11-09T17:11:10.079Z,8.41
2017-11-09T17:13:36.926Z,8.41
2017-11-09T17:16:03.802Z,8.48
2017-11-09T17:18:33.600Z,8.57
2017-11-09T17:21:00.489Z,8.44
2017-11-09T17:23:28.039Z,8.46
2017-11-09T17:25:54.932Z,8.46
2017-11-09T17:28:21.749Z,8.37
2017-11-09T17:30:48.568Z,8.39
2017-11-09T17:33:15.429Z,8.46
2017-11-09T17:35:42.263Z,8.52
2017-11-09T17:38:09.112Z,8.39
2017-11-09T17:40:35.942Z,8.50
2017-11-09T17:43:03.530Z,8.54
2017-11-09T17:45:31.148Z,8.57
2017-11-09T17:47:58.212Z,8.72
2017-11-09T17:50:25.792Z,8.58
2017-11-09T17:52:52.614Z,8.66
2017-11-09T17:55:19.438Z,8.69
2017-11-09T17:57:47.048Z,8.66
2017-11-09T18:00:17.479Z,8.76
2017-11-09T18:02:45.124Z,8.57
2017-11-09T18:05:12.003Z,8.79
2017-11-09T18:07:39.029Z,8.77
2017-11-09T18:10:05.875Z,8.77
2017-11-09T18:12:32.734Z,8.70
2017-11-09T18:14:59.577Z,8.50
2017-11-09T18:17:27.168Z,8.53
2017-11-09T18:19:54.719Z,8.49
2017-11-09T18:22:22.308Z,8.49
2017-11-09T18:24:49.232Z,8.56
2017-11-09T18:27:16.088Z,8.69
2017-11-09T18:29:42.931Z,8.69
2017-11-09T18:32:09.817Z,8.66
2017-11-09T18:34:36.686Z,8.64
2017-11-09T18:37:03.543Z,8.67
2017-11-09T18:39:30.507Z,8.71
2017-11-09T18:41:57.324Z,8.66
2017-11-09T18:44:24.934Z,8.64
2017-11-09T18:46:51.800Z,8.58
2017-11-09T18:49:18.712Z,8.62
2017-11-09T18:51:45.565Z,8.62
2017-11-09T18:54:13.293Z,8.68
2017-11-09T18:56:40.155Z,8.61
2017-11-09T18:59:13.369Z,8.69
2017-11-09T19:01:40.231Z,8.65
2017-11-09T19:04:07.349Z,8.59
2017-11-09T19:06:35.542Z,8.67
2017-11-09T19:09:08.165Z,8.66
2017-11-09T19:11:35.032Z,8.68
2017-11-09T19:14:01.905Z,8.66
2017-11-09T19:16:29.404Z,8.70
2017-11-09T19:18:56.268Z,8.70
2017-11-09T19:21:23.085Z,8.71
2017-11-09T19:23:50.058Z,8.70
2017-11-09T19:26:16.910Z,8.79
2017-11-09T19:28:43.919Z,8.77
2017-11-09T19:31:11.344Z,8.70
2017-11-09T19:33:38.250Z,8.69
2017-11-09T19:36:05.227Z,8.70
2017-11-09T19:38:33.563Z,8.72
2017-11-09T19:41:00.648Z,8.76
2017-11-09T19:43:27.624Z,8.66
2017-11-09T19:45:54.757Z,8.69
2017-11-09T19:48:21.675Z,8.72
2017-11-09T19:50:49.029Z,8.72
2017-11-09T19:53:17.243Z,8.76
2017-11-09T19:55:44.903Z,8.75
2017-11-09T19:58:11.760Z,8.70
2017-11-09T20:00:39.362Z,8.69
2017-11-09T20:03:06.270Z,8.79
2017-11-09T20:05:34.768Z,8.62
2017-11-09T20:08:03.048Z,8.68
2017-11-09T20:10:29.988Z,8.70
2017-11-09T20:12:56.857Z,8.77
2017-11-09T20:15:23.696Z,8.56
2017-11-09T20:17:50.562Z,8.74
2017-11-09T20:20:17.411Z,8.59
2017-11-09T20:22:44.229Z,8.61
2017-11-09T20:25:11.944Z,8.74
2017-11-09T20:27:38.762Z,8.71
2017-11-09T20:30:06.709Z,8.64
2017-11-09T20:32:34.194Z,8.72
2017-11-09T20:35:01.870Z,8.69
2017-11-09T20:37:28.712Z,8.69
2017-11-09T20:39:55.598Z,8.62
2017-11-09T20:42:22.439Z,8.75
2017-11-09T20:44:50.199Z,8.75
2017-11-09T20:47:17.150Z,8.75
2017-11-09T20:49:45.000Z,8.66
2017-11-09T20:52:13.606Z,8.68
2017-11-09T20:54:40.510Z,8.67
2017-11-09T20:57:07.713Z,8.50
2017-11-09T20:59:34.559Z,8.70
2017-11-09T21:02:01.411Z,8.66
2017-11-09T21:04:28.277Z,8.65
2017-11-09T21:06:55.191Z,8.64
2017-11-09T21:09:22.801Z,8.66
2017-11-09T21:11:50.054Z,8.62
2017-11-09T21:14:18.490Z,8.66
2017-11-09T21:16:45.355Z,8.66
2017-11-09T21:19:12.229Z,8.68
2017-11-09T21:21:39.116Z,8.63
2017-11-09T21:24:05.996Z,8.70
2017-11-09T21:26:33.646Z,8.65
2017-11-09T21:29:00.523Z,8.56
2017-11-09T21:31:27.406Z,8.55
2017-11-09T21:33:54.308Z,8.69
2017-11-09T21:36:21.195Z,8.60
2017-11-09T21:38:48.181Z,8.52
2017-11-09T21:41:15.775Z,8.65
2017-11-09T21:43:43.345Z,8.69
2017-11-09T21:46:10.930Z,8.65
2017-11-09T21:48:37.776Z,8.60
2017-11-09T21:51:10.196Z,8.61
2017-11-09T21:53:37.013Z,8.61
2017-11-09T21:56:03.868Z,8.58
2017-11-09T21:58:30.705Z,8.58
2017-11-09T22:00:57.585Z,8.58
2017-11-09T22:03:24.421Z,8.48
2017-11-09T22:05:51.320Z,8.61
2017-11-09T22:08:18.173Z,8.61
2017-11-09T22:10:45.021Z,8.64
2017-11-09T22:13:11.846Z,8.52
2017-11-09T22:15:38.657Z,8.61
2017-11-09T22:18:05.543Z,8.57
2017-11-09T22:20:33.121Z,8.64
2017-11-09T22:23:00.717Z,8.50
2017-11-09T22:25:27.571Z,8.67
2017-11-09T22:27:55.224Z,8.60
2017-11-09T22:30:22.113Z,8.61
2017-11-09T22:32:49.022Z,8.50
2017-11-09T22:35:16.282Z,8.59
2017-11-09T22:37:43.613Z,8.64
2017-11-09T22:40:10.559Z,8.45
2017-11-09T22:42:37.424Z,8.51
2017-11-09T22:45:05.069Z,8.63
2017-11-09T22:47:31.921Z,8.61
2017-11-09T22:49:58.783Z,8.55
2017-11-09T22:52:25.659Z,8.55
2017-11-09T22:54:52.485Z,8.61
2017-11-09T22:57:19.389Z,8.59
2017-11-09T22:59:46.275Z,8.51
2017-11-09T23:02:13.129Z,8.58
2017-11-09T23:04:40.009Z,8.45
2017-11-09T23:07:07.608Z,8.47
2017-11-09T23:09:34.555Z,8.49
2017-11-09T23:12:02.212Z,8.51
2017-11-09T23:14:29.107Z,8.46
2017-11-09T23:16:56.031Z,8.46
2017-11-09T23:19:22.867Z,8.41
2017-11-09T23:21:49.744Z,8.52
2017-11-09T23:24:16.594Z,8.30
2017-11-09T23:26:43.479Z,8.36
2017-11-09T23:29:10.339Z,8.45
2017-11-09T23:31:37.222Z,8.43
2017-11-09T23:34:04.863Z,8.39
2017-11-09T23:36:31.752Z,8.40
2017-11-09T23:38:58.626Z,8.46
2017-11-09T23:41:26.398Z,8.35
2017-11-09T23:43:53.281Z,8.26
2017-11-09T23:46:20.902Z,8.33
2017-11-09T23:48:47.761Z,8.40
2017-11-09T23:51:14.621Z,8.44
2017-11-09T23:53:41.528Z,8.37
2017-11-09T23:56:09.106Z,8.38
2017-11-09T23:58:35.982Z,8.34
